Kutahya, Turkey
Current Conditions -  °F | °C
As of 4:50 AM on Friday 28 Nov 2014 (Local Time) from LTBY Reporting Station
Clear Clear  
Wind Chill: 23°   Ceiling: Unl
Heat Index: 28°   Visibility: 4mi
Dew Point: 28°   Wind: 5mph
Humidity: 100%   Direction: 240°WSW
Pressure: 30.18"   Gusts: NA
Location:  39.42°N, 29.98°E
Report Text: LTBY 280250Z 24004KT 6000 NSC M02/M02 Q1022
Loading
Personal Weather Stations






























Interactive Weather Map New forecast layout! Learn more

10-Day Weather Forecast

Advertisements
Track Severe Weather on mobile